sensor_id;sensor_type;location;lat;lon;timestamp;P1;durP1;ratioP1;P2;durP2;ratioP2
55362;SDS011;41244;49.242;9.060;2022-08-14T00:00:43;7.88;;;6.32;;
55362;SDS011;41244;49.242;9.060;2022-08-14T00:03:25;6.40;;;5.80;;
55362;SDS011;41244;49.242;9.060;2022-08-14T00:05:54;7.93;;;6.30;;
55362;SDS011;41244;49.242;9.060;2022-08-14T00:08:21;6.95;;;6.30;;
55362;SDS011;41244;49.242;9.060;2022-08-14T00:10:47;9.02;;;6.20;;
55362;SDS011;41244;49.242;9.060;2022-08-14T00:13:13;6.82;;;6.13;;
55362;SDS011;41244;49.242;9.060;2022-08-14T00:15:43;6.60;;;6.03;;
55362;SDS011;41244;49.242;9.060;2022-08-14T00:18:11;7.15;;;6.53;;
55362;SDS011;41244;49.242;9.060;2022-08-14T00:20:41;9.50;;;5.90;;
55362;SDS011;41244;49.242;9.060;2022-08-14T00:23:08;6.93;;;6.32;;
55362;SDS011;41244;49.242;9.060;2022-08-14T00:25:35;7.97;;;5.80;;
55362;SDS011;41244;49.242;9.060;2022-08-14T00:28:02;8.48;;;6.53;;
55362;SDS011;41244;49.242;9.060;2022-08-14T00:30:29;8.00;;;6.18;;
55362;SDS011;41244;49.242;9.060;2022-08-14T00:32:55;6.70;;;6.10;;
55362;SDS011;41244;49.242;9.060;2022-08-14T00:35:21;6.40;;;5.85;;
55362;SDS011;41244;49.242;9.060;2022-08-14T00:37:47;6.50;;;5.90;;
55362;SDS011;41244;49.242;9.060;2022-08-14T00:40:14;7.03;;;6.32;;
55362;SDS011;41244;49.242;9.060;2022-08-14T00:42:42;6.90;;;5.95;;
55362;SDS011;41244;49.242;9.060;2022-08-14T00:45:09;7.95;;;6.75;;
55362;SDS011;41244;49.242;9.060;2022-08-14T00:47:38;7.18;;;6.57;;
55362;SDS011;41244;49.242;9.060;2022-08-14T00:50:07;7.18;;;6.47;;
55362;SDS011;41244;49.242;9.060;2022-08-14T00:52:35;10.15;;;6.80;;
55362;SDS011;41244;49.242;9.060;2022-08-14T00:55:02;7.22;;;6.63;;
55362;SDS011;41244;49.242;9.060;2022-08-14T00:57:31;7.55;;;6.85;;
55362;SDS011;41244;49.242;9.060;2022-08-14T00:59:59;7.35;;;6.65;;
55362;SDS011;41244;49.242;9.060;2022-08-14T01:02:26;8.23;;;6.28;;
55362;SDS011;41244;49.242;9.060;2022-08-14T01:04:54;7.75;;;6.60;;
55362;SDS011;41244;49.242;9.060;2022-08-14T01:07:23;8.73;;;6.45;;
55362;SDS011;41244;49.242;9.060;2022-08-14T01:09:53;7.30;;;6.57;;
55362;SDS011;41244;49.242;9.060;2022-08-14T01:12:29;7.95;;;7.15;;
55362;SDS011;41244;49.242;9.060;2022-08-14T01:14:57;7.22;;;6.57;;
55362;SDS011;41244;49.242;9.060;2022-08-14T01:17:25;8.30;;;7.43;;
55362;SDS011;41244;49.242;9.060;2022-08-14T01:20:13;11.68;;;7.75;;
55362;SDS011;41244;49.242;9.060;2022-08-14T01:22:58;7.88;;;6.70;;
55362;SDS011;41244;49.242;9.060;2022-08-14T01:25:24;7.57;;;6.93;;
55362;SDS011;41244;49.242;9.060;2022-08-14T01:27:49;7.82;;;7.05;;
55362;SDS011;41244;49.242;9.060;2022-08-14T01:30:16;8.20;;;7.43;;
55362;SDS011;41244;49.242;9.060;2022-08-14T01:38:56;8.52;;;7.60;;
55362;SDS011;41244;49.242;9.060;2022-08-14T01:41:22;8.65;;;7.32;;
55362;SDS011;41244;49.242;9.060;2022-08-14T01:46:18;8.07;;;7.32;;
55362;SDS011;41244;49.242;9.060;2022-08-14T01:48:49;8.02;;;7.32;;
55362;SDS011;41244;49.242;9.060;2022-08-14T01:51:16;9.35;;;7.43;;
55362;SDS011;41244;49.242;9.060;2022-08-14T01:53:49;8.40;;;7.25;;
55362;SDS011;41244;49.242;9.060;2022-08-14T01:56:20;8.02;;;7.32;;
55362;SDS011;41244;49.242;9.060;2022-08-14T01:59:06;8.02;;;7.32;;
55362;SDS011;41244;49.242;9.060;2022-08-14T02:01:43;8.40;;;7.68;;
55362;SDS011;41244;49.242;9.060;2022-08-14T02:04:18;8.90;;;7.75;;
55362;SDS011;41244;49.242;9.060;2022-08-14T02:06:46;8.70;;;7.78;;
55362;SDS011;41244;49.242;9.060;2022-08-14T02:09:15;8.85;;;7.55;;
55362;SDS011;41244;49.242;9.060;2022-08-14T02:11:42;8.95;;;8.15;;
55362;SDS011;41244;49.242;9.060;2022-08-14T02:14:10;9.00;;;8.10;;
55362;SDS011;41244;49.242;9.060;2022-08-14T02:16:38;8.63;;;7.88;;
55362;SDS011;41244;49.242;9.060;2022-08-14T02:19:11;9.10;;;7.95;;
55362;SDS011;41244;49.242;9.060;2022-08-14T02:21:40;8.60;;;7.70;;
55362;SDS011;41244;49.242;9.060;2022-08-14T02:24:09;8.82;;;8.02;;
55362;SDS011;41244;49.242;9.060;2022-08-14T02:26:37;11.20;;;8.50;;
55362;SDS011;41244;49.242;9.060;2022-08-14T02:29:12;9.38;;;8.30;;
55362;SDS011;41244;49.242;9.060;2022-08-14T02:31:43;8.40;;;7.70;;
55362;SDS011;41244;49.242;9.060;2022-08-14T02:34:15;10.30;;;8.75;;
55362;SDS011;41244;49.242;9.060;2022-08-14T02:36:54;9.00;;;8.10;;
55362;SDS011;41244;49.242;9.060;2022-08-14T02:39:23;9.00;;;8.10;;
55362;SDS011;41244;49.242;9.060;2022-08-14T02:41:50;12.23;;;9.00;;
55362;SDS011;41244;49.242;9.060;2022-08-14T02:44:17;9.80;;;8.85;;
55362;SDS011;41244;49.242;9.060;2022-08-14T02:46:45;8.65;;;7.82;;
55362;SDS011;41244;49.242;9.060;2022-08-14T02:49:12;9.02;;;8.23;;
55362;SDS011;41244;49.242;9.060;2022-08-14T02:51:37;9.13;;;8.32;;
55362;SDS011;41244;49.242;9.060;2022-08-14T02:54:04;10.43;;;8.13;;
55362;SDS011;41244;49.242;9.060;2022-08-14T02:56:32;10.30;;;9.20;;
55362;SDS011;41244;49.242;9.060;2022-08-14T02:59:02;9.05;;;8.25;;
55362;SDS011;41244;49.242;9.060;2022-08-14T03:01:31;8.65;;;7.85;;
55362;SDS011;41244;49.242;9.060;2022-08-14T03:03:58;9.35;;;8.55;;
55362;SDS011;41244;49.242;9.060;2022-08-14T03:06:24;8.88;;;8.05;;
55362;SDS011;41244;49.242;9.060;2022-08-14T03:08:53;9.75;;;8.00;;
55362;SDS011;41244;49.242;9.060;2022-08-14T03:11:20;9.52;;;8.63;;
55362;SDS011;41244;49.242;9.060;2022-08-14T03:13:47;8.70;;;7.90;;
55362;SDS011;41244;49.242;9.060;2022-08-14T03:16:17;9.38;;;8.57;;
55362;SDS011;41244;49.242;9.060;2022-08-14T03:18:46;9.35;;;8.45;;
55362;SDS011;41244;49.242;9.060;2022-08-14T03:21:15;10.52;;;9.18;;
55362;SDS011;41244;49.242;9.060;2022-08-14T03:23:43;9.90;;;9.00;;
55362;SDS011;41244;49.242;9.060;2022-08-14T03:26:12;9.45;;;8.55;;
55362;SDS011;41244;49.242;9.060;2022-08-14T03:28:42;9.15;;;8.35;;
55362;SDS011;41244;49.242;9.060;2022-08-14T03:31:13;9.15;;;8.35;;
55362;SDS011;41244;49.242;9.060;2022-08-14T03:33:40;9.48;;;8.57;;
55362;SDS011;41244;49.242;9.060;2022-08-14T03:36:08;9.70;;;8.85;;
55362;SDS011;41244;49.242;9.060;2022-08-14T03:38:38;9.45;;;8.65;;
55362;SDS011;41244;49.242;9.060;2022-08-14T03:41:10;9.85;;;8.95;;
55362;SDS011;41244;49.242;9.060;2022-08-14T03:43:41;10.23;;;9.23;;
55362;SDS011;41244;49.242;9.060;2022-08-14T03:46:08;9.95;;;8.48;;
55362;SDS011;41244;49.242;9.060;2022-08-14T03:48:37;10.20;;;9.30;;
55362;SDS011;41244;49.242;9.060;2022-08-14T03:51:04;9.63;;;8.73;;
55362;SDS011;41244;49.242;9.060;2022-08-14T03:53:37;10.02;;;9.05;;
55362;SDS011;41244;49.242;9.060;2022-08-14T03:56:07;11.05;;;9.95;;
55362;SDS011;41244;49.242;9.060;2022-08-14T03:58:39;10.35;;;9.45;;
55362;SDS011;41244;49.242;9.060;2022-08-14T04:01:09;10.57;;;9.57;;
55362;SDS011;41244;49.242;9.060;2022-08-14T04:03:37;10.40;;;9.50;;
55362;SDS011;41244;49.242;9.060;2022-08-14T04:06:03;10.00;;;9.02;;
55362;SDS011;41244;49.242;9.060;2022-08-14T04:08:35;9.90;;;8.93;;
55362;SDS011;41244;49.242;9.060;2022-08-14T04:11:03;9.15;;;8.35;;
55362;SDS011;41244;49.242;9.060;2022-08-14T04:13:30;9.70;;;8.80;;
55362;SDS011;41244;49.242;9.060;2022-08-14T04:15:58;10.77;;;9.68;;
55362;SDS011;41244;49.242;9.060;2022-08-14T04:18:25;10.23;;;9.32;;
55362;SDS011;41244;49.242;9.060;2022-08-14T04:20:51;10.35;;;9.45;;
55362;SDS011;41244;49.242;9.060;2022-08-14T04:23:16;10.85;;;9.88;;
55362;SDS011;41244;49.242;9.060;2022-08-14T04:25:42;10.35;;;9.35;;
55362;SDS011;41244;49.242;9.060;2022-08-14T04:28:10;10.50;;;9.50;;
55362;SDS011;41244;49.242;9.060;2022-08-14T04:30:39;9.40;;;8.50;;
55362;SDS011;41244;49.242;9.060;2022-08-14T04:33:05;10.00;;;9.10;;
55362;SDS011;41244;49.242;9.060;2022-08-14T04:35:32;10.52;;;9.63;;
55362;SDS011;41244;49.242;9.060;2022-08-14T04:38:00;11.15;;;10.00;;
55362;SDS011;41244;49.242;9.060;2022-08-14T04:40:52;10.18;;;9.20;;
55362;SDS011;41244;49.242;9.060;2022-08-14T04:43:37;9.77;;;8.73;;
55362;SDS011;41244;49.242;9.060;2022-08-14T04:46:11;9.75;;;8.85;;
55362;SDS011;41244;49.242;9.060;2022-08-14T04:51:06;10.73;;;9.73;;
55362;SDS011;41244;49.242;9.060;2022-08-14T04:53:38;10.75;;;9.85;;
55362;SDS011;41244;49.242;9.060;2022-08-14T04:56:07;13.40;;;10.93;;
55362;SDS011;41244;49.242;9.060;2022-08-14T04:58:37;10.63;;;9.73;;
55362;SDS011;41244;49.242;9.060;2022-08-14T05:01:04;12.18;;;11.02;;
55362;SDS011;41244;49.242;9.060;2022-08-14T05:03:32;11.95;;;10.95;;
55362;SDS011;41244;49.242;9.060;2022-08-14T05:06:01;13.00;;;11.77;;
55362;SDS011;41244;49.242;9.060;2022-08-14T05:08:34;11.43;;;10.32;;
55362;SDS011;41244;49.242;9.060;2022-08-14T05:11:01;12.43;;;11.32;;
55362;SDS011;41244;49.242;9.060;2022-08-14T05:13:29;13.25;;;11.95;;
55362;SDS011;41244;49.242;9.060;2022-08-14T05:15:58;12.38;;;11.10;;
55362;SDS011;41244;49.242;9.060;2022-08-14T05:18:26;12.60;;;10.98;;
55362;SDS011;41244;49.242;9.060;2022-08-14T05:20:57;11.82;;;10.73;;
55362;SDS011;41244;49.242;9.060;2022-08-14T05:23:26;12.40;;;11.13;;
55362;SDS011;41244;49.242;9.060;2022-08-14T05:28:28;11.77;;;10.75;;
55362;SDS011;41244;49.242;9.060;2022-08-14T05:30:58;12.30;;;11.20;;
55362;SDS011;41244;49.242;9.060;2022-08-14T05:33:27;12.43;;;11.25;;
55362;SDS011;41244;49.242;9.060;2022-08-14T05:35:55;12.48;;;11.07;;
55362;SDS011;41244;49.242;9.060;2022-08-14T05:38:27;11.25;;;10.00;;
55362;SDS011;41244;49.242;9.060;2022-08-14T05:41:02;11.50;;;10.43;;
55362;SDS011;41244;49.242;9.060;2022-08-14T05:43:47;11.13;;;10.02;;
55362;SDS011;41244;49.242;9.060;2022-08-14T05:46:14;11.63;;;10.63;;
55362;SDS011;41244;49.242;9.060;2022-08-14T05:48:46;11.27;;;10.27;;
55362;SDS011;41244;49.242;9.060;2022-08-14T05:51:17;11.80;;;10.80;;
55362;SDS011;41244;49.242;9.060;2022-08-14T05:53:43;10.98;;;9.90;;
55362;SDS011;41244;49.242;9.060;2022-08-14T05:56:09;11.02;;;9.93;;
55362;SDS011;41244;49.242;9.060;2022-08-14T05:58:35;11.20;;;10.02;;
55362;SDS011;41244;49.242;9.060;2022-08-14T06:01:02;10.73;;;9.73;;
55362;SDS011;41244;49.242;9.060;2022-08-14T06:03:28;10.98;;;10.00;;
55362;SDS011;41244;49.242;9.060;2022-08-14T06:05:54;10.45;;;9.40;;
55362;SDS011;41244;49.242;9.060;2022-08-14T06:08:22;10.55;;;9.65;;
55362;SDS011;41244;49.242;9.060;2022-08-14T06:10:55;10.73;;;9.63;;
55362;SDS011;41244;49.242;9.060;2022-08-14T06:13:37;11.20;;;10.10;;
55362;SDS011;41244;49.242;9.060;2022-08-14T06:16:04;10.35;;;9.52;;
55362;SDS011;41244;49.242;9.060;2022-08-14T06:18:31;10.93;;;9.85;;
55362;SDS011;41244;49.242;9.060;2022-08-14T06:20:57;10.18;;;9.02;;
55362;SDS011;41244;49.242;9.060;2022-08-14T06:23:23;12.23;;;9.80;;
55362;SDS011;41244;49.242;9.060;2022-08-14T06:25:49;9.65;;;8.85;;
55362;SDS011;41244;49.242;9.060;2022-08-14T06:28:18;9.82;;;8.68;;
55362;SDS011;41244;49.242;9.060;2022-08-14T06:30:45;10.80;;;9.80;;
55362;SDS011;41244;49.242;9.060;2022-08-14T06:33:12;9.18;;;8.32;;
55362;SDS011;41244;49.242;9.060;2022-08-14T06:35:39;9.75;;;8.80;;
55362;SDS011;41244;49.242;9.060;2022-08-14T06:38:04;9.23;;;8.40;;
55362;SDS011;41244;49.242;9.060;2022-08-14T06:40:32;9.07;;;8.15;;
55362;SDS011;41244;49.242;9.060;2022-08-14T06:43:02;9.57;;;8.60;;
55362;SDS011;41244;49.242;9.060;2022-08-14T06:45:31;15.38;;;11.00;;
55362;SDS011;41244;49.242;9.060;2022-08-14T06:47:58;14.32;;;11.88;;
55362;SDS011;41244;49.242;9.060;2022-08-14T06:50:25;11.52;;;10.15;;
55362;SDS011;41244;49.242;9.060;2022-08-14T06:52:52;9.50;;;8.63;;
55362;SDS011;41244;49.242;9.060;2022-08-14T06:55:19;9.75;;;8.75;;
55362;SDS011;41244;49.242;9.060;2022-08-14T06:57:45;10.23;;;9.23;;
55362;SDS011;41244;49.242;9.060;2022-08-14T07:00:14;10.65;;;8.52;;
55362;SDS011;41244;49.242;9.060;2022-08-14T07:02:51;9.90;;;9.10;;
55362;SDS011;41244;49.242;9.060;2022-08-14T07:05:36;9.75;;;8.77;;
55362;SDS011;41244;49.242;9.060;2022-08-14T07:08:14;10.13;;;8.70;;
55362;SDS011;41244;49.242;9.060;2022-08-14T07:10:50;9.60;;;8.80;;
55362;SDS011;41244;49.242;9.060;2022-08-14T07:13:18;9.77;;;8.98;;
55362;SDS011;41244;49.242;9.060;2022-08-14T07:15:46;10.38;;;9.10;;
55362;SDS011;41244;49.242;9.060;2022-08-14T07:18:14;10.18;;;9.15;;
55362;SDS011;41244;49.242;9.060;2022-08-14T07:20:47;8.95;;;8.15;;
55362;SDS011;41244;49.242;9.060;2022-08-14T07:23:14;10.85;;;8.38;;
55362;SDS011;41244;49.242;9.060;2022-08-14T07:25:41;9.82;;;8.98;;
55362;SDS011;41244;49.242;9.060;2022-08-14T07:28:13;9.80;;;8.80;;
55362;SDS011;41244;49.242;9.060;2022-08-14T07:30:40;9.30;;;8.40;;
55362;SDS011;41244;49.242;9.060;2022-08-14T07:33:07;9.38;;;8.35;;
55362;SDS011;41244;49.242;9.060;2022-08-14T07:35:34;8.90;;;8.20;;
55362;SDS011;41244;49.242;9.060;2022-08-14T07:38:01;8.95;;;7.20;;
55362;SDS011;41244;49.242;9.060;2022-08-14T07:40:28;18.67;;;13.23;;
55362;SDS011;41244;49.242;9.060;2022-08-14T07:42:54;9.23;;;8.40;;
55362;SDS011;41244;49.242;9.060;2022-08-14T07:45:20;8.90;;;7.30;;
55362;SDS011;41244;49.242;9.060;2022-08-14T07:47:46;8.23;;;7.38;;
55362;SDS011;41244;49.242;9.060;2022-08-14T07:50:13;7.78;;;7.18;;
55362;SDS011;41244;49.242;9.060;2022-08-14T07:52:42;8.43;;;6.60;;
55362;SDS011;41244;49.242;9.060;2022-08-14T07:55:11;7.45;;;6.80;;
55362;SDS011;41244;49.242;9.060;2022-08-14T07:57:39;7.25;;;6.65;;
55362;SDS011;41244;49.242;9.060;2022-08-14T08:00:19;7.32;;;6.72;;
55362;SDS011;41244;49.242;9.060;2022-08-14T08:02:47;7.63;;;7.03;;
55362;SDS011;41244;49.242;9.060;2022-08-14T08:05:19;7.57;;;6.55;;
55362;SDS011;41244;49.242;9.060;2022-08-14T08:07:47;7.30;;;6.60;;
55362;SDS011;41244;49.242;9.060;2022-08-14T08:10:16;7.10;;;6.20;;
55362;SDS011;41244;49.242;9.060;2022-08-14T08:12:58;8.45;;;6.93;;
55362;SDS011;41244;49.242;9.060;2022-08-14T08:15:34;7.13;;;6.20;;
55362;SDS011;41244;49.242;9.060;2022-08-14T08:18:05;7.93;;;6.20;;
55362;SDS011;41244;49.242;9.060;2022-08-14T08:20:35;6.85;;;5.75;;
55362;SDS011;41244;49.242;9.060;2022-08-14T08:23:14;7.60;;;5.88;;
55362;SDS011;41244;49.242;9.060;2022-08-14T08:25:43;6.20;;;5.70;;
55362;SDS011;41244;49.242;9.060;2022-08-14T08:33:19;9.35;;;5.82;;
55362;SDS011;41244;49.242;9.060;2022-08-14T08:35:47;7.22;;;6.05;;
55362;SDS011;41244;49.242;9.060;2022-08-14T08:38:15;6.05;;;5.55;;
55362;SDS011;41244;49.242;9.060;2022-08-14T08:40:50;6.00;;;5.00;;
55362;SDS011;41244;49.242;9.060;2022-08-14T08:43:21;6.38;;;5.30;;
55362;SDS011;41244;49.242;9.060;2022-08-14T08:48:27;7.13;;;5.28;;
55362;SDS011;41244;49.242;9.060;2022-08-14T08:50:56;6.57;;;5.30;;
55362;SDS011;41244;49.242;9.060;2022-08-14T08:53:31;7.30;;;6.50;;
55362;SDS011;41244;49.242;9.060;2022-08-14T08:55:59;6.95;;;5.50;;
55362;SDS011;41244;49.242;9.060;2022-08-14T08:58:25;5.05;;;4.60;;
55362;SDS011;41244;49.242;9.060;2022-08-14T09:00:52;4.75;;;4.30;;
55362;SDS011;41244;49.242;9.060;2022-08-14T09:03:21;5.43;;;4.93;;
55362;SDS011;41244;49.242;9.060;2022-08-14T09:08:28;5.63;;;4.68;;
55362;SDS011;41244;49.242;9.060;2022-08-14T09:10:56;5.00;;;4.60;;
55362;SDS011;41244;49.242;9.060;2022-08-14T09:13:24;4.30;;;3.90;;
55362;SDS011;41244;49.242;9.060;2022-08-14T09:15:51;4.55;;;4.15;;
55362;SDS011;41244;49.242;9.060;2022-08-14T09:18:19;4.93;;;4.43;;
55362;SDS011;41244;49.242;9.060;2022-08-14T09:20:48;6.28;;;4.65;;
55362;SDS011;41244;49.242;9.060;2022-08-14T09:23:19;7.10;;;4.57;;
55362;SDS011;41244;49.242;9.060;2022-08-14T09:25:46;6.05;;;4.28;;
55362;SDS011;41244;49.242;9.060;2022-08-14T09:28:14;5.63;;;4.40;;
55362;SDS011;41244;49.242;9.060;2022-08-14T09:30:43;4.70;;;4.30;;
55362;SDS011;41244;49.242;9.060;2022-08-14T09:33:21;4.30;;;3.70;;
55362;SDS011;41244;49.242;9.060;2022-08-14T09:44:57;4.53;;;4.10;;
55362;SDS011;41244;49.242;9.060;2022-08-14T09:50:31;7.25;;;4.00;;
55362;SDS011;41244;49.242;9.060;2022-08-14T09:53:09;4.47;;;4.05;;
55362;SDS011;41244;49.242;9.060;2022-08-14T09:55:36;6.70;;;3.92;;
55362;SDS011;41244;49.242;9.060;2022-08-14T10:00:49;4.45;;;4.05;;
55362;SDS011;41244;49.242;9.060;2022-08-14T10:03:33;5.50;;;4.10;;
55362;SDS011;41244;49.242;9.060;2022-08-14T10:11:22;3.90;;;3.60;;
55362;SDS011;41244;49.242;9.060;2022-08-14T10:14:22;7.15;;;4.13;;
55362;SDS011;41244;49.242;9.060;2022-08-14T10:16:51;4.60;;;4.00;;
55362;SDS011;41244;49.242;9.060;2022-08-14T10:19:24;4.03;;;3.63;;
55362;SDS011;41244;49.242;9.060;2022-08-14T10:21:59;3.88;;;3.58;;
55362;SDS011;41244;49.242;9.060;2022-08-14T10:24:36;4.00;;;3.70;;
55362;SDS011;41244;49.242;9.060;2022-08-14T10:27:12;3.95;;;3.60;;
55362;SDS011;41244;49.242;9.060;2022-08-14T10:29:48;5.20;;;3.90;;
55362;SDS011;41244;49.242;9.060;2022-08-14T10:32:17;4.10;;;3.70;;
55362;SDS011;41244;49.242;9.060;2022-08-14T10:34:43;4.40;;;3.60;;
55362;SDS011;41244;49.242;9.060;2022-08-14T10:37:13;4.38;;;3.50;;
55362;SDS011;41244;49.242;9.060;2022-08-14T10:39:42;4.43;;;4.03;;
55362;SDS011;41244;49.242;9.060;2022-08-14T10:42:11;4.35;;;3.95;;
55362;SDS011;41244;49.242;9.060;2022-08-14T10:44:39;5.65;;;3.70;;
55362;SDS011;41244;49.242;9.060;2022-08-14T10:47:12;5.07;;;3.60;;
55362;SDS011;41244;49.242;9.060;2022-08-14T10:49:39;4.10;;;3.35;;
55362;SDS011;41244;49.242;9.060;2022-08-14T10:52:21;4.07;;;3.45;;
55362;SDS011;41244;49.242;9.060;2022-08-14T10:54:50;6.28;;;3.83;;
55362;SDS011;41244;49.242;9.060;2022-08-14T10:57:20;4.72;;;3.85;;
55362;SDS011;41244;49.242;9.060;2022-08-14T11:02:28;6.90;;;5.05;;
55362;SDS011;41244;49.242;9.060;2022-08-14T11:05:02;5.95;;;4.15;;
55362;SDS011;41244;49.242;9.060;2022-08-14T11:07:29;4.10;;;3.70;;
55362;SDS011;41244;49.242;9.060;2022-08-14T11:09:55;5.93;;;4.30;;
55362;SDS011;41244;49.242;9.060;2022-08-14T11:12:24;4.03;;;3.63;;
55362;SDS011;41244;49.242;9.060;2022-08-14T11:14:56;4.60;;;3.65;;
55362;SDS011;41244;49.242;9.060;2022-08-14T11:17:26;4.35;;;3.95;;
55362;SDS011;41244;49.242;9.060;2022-08-14T11:19:54;4.03;;;3.70;;
55362;SDS011;41244;49.242;9.060;2022-08-14T11:22:27;3.97;;;3.50;;
55362;SDS011;41244;49.242;9.060;2022-08-14T11:24:59;5.28;;;3.80;;
55362;SDS011;41244;49.242;9.060;2022-08-14T11:27:30;4.10;;;3.80;;
55362;SDS011;41244;49.242;9.060;2022-08-14T11:29:59;4.63;;;4.18;;
55362;SDS011;41244;49.242;9.060;2022-08-14T11:32:28;7.47;;;4.88;;
55362;SDS011;41244;49.242;9.060;2022-08-14T11:34:58;6.07;;;3.95;;
55362;SDS011;41244;49.242;9.060;2022-08-14T11:37:26;4.10;;;3.80;;
55362;SDS011;41244;49.242;9.060;2022-08-14T11:39:53;5.30;;;4.20;;
55362;SDS011;41244;49.242;9.060;2022-08-14T11:42:23;5.50;;;4.18;;
55362;SDS011;41244;49.242;9.060;2022-08-14T11:44:58;5.15;;;4.00;;
55362;SDS011;41244;49.242;9.060;2022-08-14T11:47:31;5.88;;;3.90;;
55362;SDS011;41244;49.242;9.060;2022-08-14T11:49:57;5.80;;;4.20;;
55362;SDS011;41244;49.242;9.060;2022-08-14T11:52:32;5.55;;;4.07;;
55362;SDS011;41244;49.242;9.060;2022-08-14T11:55:01;4.90;;;4.50;;
55362;SDS011;41244;49.242;9.060;2022-08-14T11:57:35;6.88;;;4.25;;
55362;SDS011;41244;49.242;9.060;2022-08-14T12:00:06;4.55;;;4.15;;
55362;SDS011;41244;49.242;9.060;2022-08-14T12:02:36;4.68;;;4.28;;
55362;SDS011;41244;49.242;9.060;2022-08-14T12:05:12;4.47;;;4.07;;
55362;SDS011;41244;49.242;9.060;2022-08-14T12:07:48;4.97;;;3.92;;
55362;SDS011;41244;49.242;9.060;2022-08-14T12:10:16;5.40;;;3.88;;
55362;SDS011;41244;49.242;9.060;2022-08-14T12:12:43;4.07;;;3.78;;
55362;SDS011;41244;49.242;9.060;2022-08-14T12:15:09;6.25;;;4.10;;
55362;SDS011;41244;49.242;9.060;2022-08-14T12:17:46;5.03;;;4.25;;
55362;SDS011;41244;49.242;9.060;2022-08-14T12:20:13;5.20;;;4.00;;
55362;SDS011;41244;49.242;9.060;2022-08-14T12:22:40;4.50;;;4.03;;
55362;SDS011;41244;49.242;9.060;2022-08-14T12:25:11;4.82;;;3.75;;
55362;SDS011;41244;49.242;9.060;2022-08-14T12:27:49;4.28;;;3.88;;
55362;SDS011;41244;49.242;9.060;2022-08-14T12:33:05;4.40;;;3.95;;
55362;SDS011;41244;49.242;9.060;2022-08-14T12:35:52;4.07;;;3.78;;
55362;SDS011;41244;49.242;9.060;2022-08-14T12:38:30;4.30;;;3.70;;
55362;SDS011;41244;49.242;9.060;2022-08-14T12:41:00;3.78;;;3.45;;
55362;SDS011;41244;49.242;9.060;2022-08-14T12:43:26;4.43;;;4.07;;
55362;SDS011;41244;49.242;9.060;2022-08-14T12:45:53;8.85;;;4.10;;
55362;SDS011;41244;49.242;9.060;2022-08-14T12:48:20;4.97;;;4.10;;
55362;SDS011;41244;49.242;9.060;2022-08-14T12:50:48;4.55;;;3.80;;
55362;SDS011;41244;49.242;9.060;2022-08-14T12:53:16;5.22;;;3.85;;
55362;SDS011;41244;49.242;9.060;2022-08-14T12:55:45;5.03;;;4.00;;
55362;SDS011;41244;49.242;9.060;2022-08-14T12:58:27;4.32;;;3.97;;
55362;SDS011;41244;49.242;9.060;2022-08-14T13:00:54;4.45;;;4.05;;
55362;SDS011;41244;49.242;9.060;2022-08-14T13:03:24;4.55;;;3.70;;
55362;SDS011;41244;49.242;9.060;2022-08-14T13:05:52;4.25;;;3.85;;
55362;SDS011;41244;49.242;9.060;2022-08-14T13:08:19;4.07;;;3.70;;
55362;SDS011;41244;49.242;9.060;2022-08-14T13:10:47;4.30;;;3.90;;
55362;SDS011;41244;49.242;9.060;2022-08-14T13:13:15;5.25;;;3.92;;
55362;SDS011;41244;49.242;9.060;2022-08-14T13:15:42;4.40;;;4.00;;
55362;SDS011;41244;49.242;9.060;2022-08-14T13:18:13;5.40;;;3.90;;
55362;SDS011;41244;49.242;9.060;2022-08-14T13:20:40;4.20;;;3.80;;
55362;SDS011;41244;49.242;9.060;2022-08-14T13:23:07;5.22;;;4.38;;
55362;SDS011;41244;49.242;9.060;2022-08-14T13:25:34;4.43;;;4.03;;
55362;SDS011;41244;49.242;9.060;2022-08-14T13:28:02;5.10;;;3.95;;
55362;SDS011;41244;49.242;9.060;2022-08-14T13:30:30;4.45;;;4.05;;
55362;SDS011;41244;49.242;9.060;2022-08-14T13:32:56;4.53;;;3.92;;
55362;SDS011;41244;49.242;9.060;2022-08-14T13:35:24;4.10;;;3.70;;
55362;SDS011;41244;49.242;9.060;2022-08-14T13:37:50;4.57;;;4.00;;
55362;SDS011;41244;49.242;9.060;2022-08-14T13:40:17;4.00;;;3.70;;
55362;SDS011;41244;49.242;9.060;2022-08-14T13:42:46;4.35;;;4.05;;
55362;SDS011;41244;49.242;9.060;2022-08-14T13:45:14;4.80;;;3.80;;
55362;SDS011;41244;49.242;9.060;2022-08-14T13:47:41;4.00;;;3.70;;
55362;SDS011;41244;49.242;9.060;2022-08-14T13:50:08;4.10;;;3.80;;
55362;SDS011;41244;49.242;9.060;2022-08-14T13:55:10;5.45;;;3.65;;
55362;SDS011;41244;49.242;9.060;2022-08-14T13:57:38;4.28;;;3.88;;
55362;SDS011;41244;49.242;9.060;2022-08-14T14:00:08;4.45;;;4.05;;
55362;SDS011;41244;49.242;9.060;2022-08-14T14:02:41;4.20;;;3.60;;
55362;SDS011;41244;49.242;9.060;2022-08-14T14:05:09;5.32;;;3.75;;
55362;SDS011;41244;49.242;9.060;2022-08-14T14:07:42;4.03;;;3.72;;
55362;SDS011;41244;49.242;9.060;2022-08-14T14:10:11;4.97;;;3.95;;
55362;SDS011;41244;49.242;9.060;2022-08-14T14:12:38;4.97;;;4.22;;
55362;SDS011;41244;49.242;9.060;2022-08-14T14:15:05;6.82;;;3.78;;
55362;SDS011;41244;49.242;9.060;2022-08-14T14:17:37;4.15;;;3.75;;
55362;SDS011;41244;49.242;9.060;2022-08-14T14:20:04;4.03;;;3.70;;
55362;SDS011;41244;49.242;9.060;2022-08-14T14:22:32;5.18;;;4.10;;
55362;SDS011;41244;49.242;9.060;2022-08-14T14:24:58;4.65;;;3.88;;
55362;SDS011;41244;49.242;9.060;2022-08-14T14:27:25;6.40;;;3.95;;
55362;SDS011;41244;49.242;9.060;2022-08-14T14:29:52;4.78;;;4.38;;
55362;SDS011;41244;49.242;9.060;2022-08-14T14:32:25;5.25;;;4.85;;
55362;SDS011;41244;49.242;9.060;2022-08-14T14:34:54;5.15;;;4.18;;
55362;SDS011;41244;49.242;9.060;2022-08-14T14:37:26;4.47;;;4.07;;
55362;SDS011;41244;49.242;9.060;2022-08-14T14:39:54;4.40;;;4.00;;
55362;SDS011;41244;49.242;9.060;2022-08-14T14:42:24;4.47;;;4.03;;
55362;SDS011;41244;49.242;9.060;2022-08-14T14:44:55;3.92;;;3.63;;
55362;SDS011;41244;49.242;9.060;2022-08-14T14:47:42;4.22;;;3.92;;
55362;SDS011;41244;49.242;9.060;2022-08-14T14:50:11;5.43;;;4.85;;
55362;SDS011;41244;49.242;9.060;2022-08-14T14:52:38;4.45;;;3.85;;
55362;SDS011;41244;49.242;9.060;2022-08-14T14:55:05;5.50;;;4.28;;
55362;SDS011;41244;49.242;9.060;2022-08-14T14:57:32;4.25;;;3.85;;
55362;SDS011;41244;49.242;9.060;2022-08-14T14:59:58;4.40;;;4.00;;
55362;SDS011;41244;49.242;9.060;2022-08-14T15:02:31;4.40;;;3.92;;
55362;SDS011;41244;49.242;9.060;2022-08-14T15:05:03;4.97;;;3.85;;
55362;SDS011;41244;49.242;9.060;2022-08-14T15:07:29;4.40;;;4.00;;
55362;SDS011;41244;49.242;9.060;2022-08-14T15:09:56;5.72;;;4.05;;
55362;SDS011;41244;49.242;9.060;2022-08-14T15:12:23;4.05;;;3.70;;
55362;SDS011;41244;49.242;9.060;2022-08-14T15:14:49;4.55;;;4.18;;
55362;SDS011;41244;49.242;9.060;2022-08-14T15:17:15;5.22;;;4.20;;
55362;SDS011;41244;49.242;9.060;2022-08-14T15:19:41;5.10;;;4.60;;
55362;SDS011;41244;49.242;9.060;2022-08-14T15:22:07;4.30;;;3.90;;
55362;SDS011;41244;49.242;9.060;2022-08-14T15:24:32;4.43;;;4.03;;
55362;SDS011;41244;49.242;9.060;2022-08-14T15:26:58;7.60;;;4.28;;
55362;SDS011;41244;49.242;9.060;2022-08-14T15:29:24;5.43;;;4.10;;
55362;SDS011;41244;49.242;9.060;2022-08-14T15:31:51;6.57;;;3.90;;
55362;SDS011;41244;49.242;9.060;2022-08-14T15:34:18;6.57;;;4.32;;
55362;SDS011;41244;49.242;9.060;2022-08-14T15:36:44;4.28;;;3.88;;
55362;SDS011;41244;49.242;9.060;2022-08-14T15:39:12;7.35;;;4.07;;
55362;SDS011;41244;49.242;9.060;2022-08-14T15:41:39;5.15;;;3.90;;
55362;SDS011;41244;49.242;9.060;2022-08-14T15:44:05;4.45;;;4.00;;
55362;SDS011;41244;49.242;9.060;2022-08-14T15:46:32;4.45;;;4.05;;
55362;SDS011;41244;49.242;9.060;2022-08-14T15:48:58;4.65;;;4.15;;